Time;durP1;ratioP1;P1;durP2;ratioP2;P2;SDS_P1;SDS_P2;PMS_P1;PMS_P2;Temp;Humidity;BMP_temperature;BMP_pressure;BME280_temperature;BME280_humidity;BME280_pressure;Samples;Min_cycle;Max_cycle;Signal;HPM_P1;HPM_P2
2023/07/23 00:00:50;;;;;;;4.10;2.47;;;;;;;-145.69;51.43;51880.00;5094309;28;20284;-84
2023/07/23 00:03:17;;;;;;;3.88;2.40;;;;;;;-145.69;52.48;51854.28;5091288;28;20436;-84
2023/07/23 00:05:45;;;;;;;4.18;2.35;;;;;;;-145.69;51.31;51842.38;5094355;28;20310;-85
2023/07/23 00:08:15;;;;;;;4.13;2.22;;;;;;;-145.69;50.89;51842.38;5097713;28;20557;-85
2023/07/23 00:10:42;;;;;;;3.30;2.20;;;;;;;-145.69;50.67;51854.28;5096919;28;20293;-85
2023/07/23 00:13:08;;;;;;;4.43;2.25;;;;;;;-145.69;50.59;51862.19;5093921;28;20194;-84
2023/07/23 00:15:35;;;;;;;4.13;2.15;;;;;;;-145.69;50.21;51846.34;5094437;28;20197;-84
2023/07/23 00:18:03;;;;;;;2.97;1.90;;;;;;;-145.69;51.68;51854.28;5097864;28;20202;-85
2023/07/23 00:20:33;;;;;;;4.32;2.30;;;;;;;-145.69;52.35;51862.19;5099543;28;20202;-84
2023/07/23 00:23:00;;;;;;;4.40;2.30;;;;;;;-145.69;52.34;51826.56;5094391;28;20198;-85
2023/07/23 00:25:28;;;;;;;4.72;2.55;;;;;;;-145.69;52.89;51856.25;5093798;28;20226;-84
2023/07/23 00:27:54;;;;;;;4.47;2.58;;;;;;;-145.69;53.30;51864.16;5092861;28;20201;-86
2023/07/23 00:30:21;;;;;;;3.55;2.10;;;;;;;-145.69;53.64;51854.28;5093741;28;20588;-85
2023/07/23 00:32:51;;;;;;;4.05;2.10;;;;;;;-145.69;53.39;51846.34;5093784;28;20197;-85
2023/07/23 00:35:20;;;;;;;3.40;1.95;;;;;;;-145.69;53.74;51846.34;5093287;28;20197;-85
2023/07/23 00:37:47;;;;;;;4.35;2.13;;;;;;;-145.69;53.13;51868.13;5084821;28;20579;-84
2023/07/23 00:40:13;;;;;;;3.38;1.85;;;;;;;-145.69;53.54;51868.13;5093802;28;20661;-85
2023/07/23 00:42:50;;;;;;;3.80;2.13;;;;;;;-145.69;53.01;51883.97;5093294;28;20202;-84
2023/07/23 00:45:20;;;;;;;4.13;2.05;;;;;;;-145.69;54.38;51874.06;5094708;28;20226;-84
2023/07/23 00:47:47;;;;;;;3.50;2.10;;;;;;;-145.69;55.32;51854.28;5096940;28;20198;-84
2023/07/23 00:50:15;;;;;;;3.55;1.98;;;;;;;-145.69;55.93;51842.38;5094304;28;20202;-85
2023/07/23 00:52:45;;;;;;;3.78;2.40;;;;;;;-145.69;55.39;51868.13;5093137;28;20237;-84
2023/07/23 00:55:17;;;;;;;2.45;1.90;;;;;;;-145.69;54.76;51866.16;5093694;28;20194;-85
2023/07/23 00:57:56;;;;;;;5.20;2.30;;;;;;;-145.69;53.90;51852.28;5094294;28;20205;-85
2023/07/23 01:00:23;;;;;;;4.25;2.38;;;;;;;-145.69;55.46;51844.38;5092404;28;20198;-84
2023/07/23 01:03:10;;;;;;;5.22;2.00;;;;;;;-145.69;54.55;51880.00;5095538;28;20232;-85
2023/07/23 01:05:40;;;;;;;5.03;2.42;;;;;;;-145.69;53.68;51862.19;5093517;28;20310;-84
2023/07/23 01:08:10;;;;;;;4.22;2.22;;;;;;;-145.69;53.29;51878.03;5093627;28;20649;-85
2023/07/23 01:10:37;;;;;;;4.00;2.17;;;;;;;-145.69;52.94;51882.00;5098521;28;20198;-87
2023/07/23 01:13:09;;;;;;;3.80;2.13;;;;;;;-145.69;52.85;51858.22;5093960;28;20194;-85
2023/07/23 01:15:41;;;;;;;5.43;2.17;;;;;;;-145.69;52.63;51854.28;5095811;28;20212;-85
2023/07/23 01:18:12;;;;;;;5.10;2.30;;;;;;;-145.69;52.65;51858.22;5095896;28;20202;-85
2023/07/23 01:20:39;;;;;;;6.45;2.17;;;;;;;-145.69;52.89;51878.03;5094843;28;20201;-83
2023/07/23 01:23:07;;;;;;;3.75;2.30;;;;;;;-145.69;52.74;51874.06;5091950;28;20201;-84
2023/07/23 01:25:36;;;;;;;7.10;2.40;;;;;;;-145.69;53.66;51872.09;5095099;28;20230;-84
2023/07/23 01:28:03;;;;;;;4.78;2.30;;;;;;;-145.69;53.28;51860.22;5093480;28;20213;-84
2023/07/23 01:30:31;;;;;;;9.57;2.00;;;;;;;-145.69;52.85;51872.09;5096291;28;20205;-84
2023/07/23 01:33:03;;;;;;;4.03;2.10;;;;;;;-145.69;53.35;51846.34;5096929;28;20194;-83
2023/07/23 01:35:29;;;;;;;4.10;1.80;;;;;;;-145.69;54.18;51889.91;5096873;28;20240;-84
2023/07/23 01:37:58;;;;;;;4.82;2.10;;;;;;;-145.69;53.93;51883.97;5097841;28;20202;-84
2023/07/23 01:40:26;;;;;;;3.50;2.03;;;;;;;-145.69;54.24;51893.88;5097151;28;20656;-84
2023/07/23 01:42:53;;;;;;;5.55;2.40;;;;;;;-145.69;54.22;51864.16;5096765;28;20221;-83
2023/07/23 01:45:19;;;;;;;3.33;2.00;;;;;;;-145.69;54.46;51883.97;5097013;28;20206;-83
2023/07/23 01:47:46;;;;;;;3.60;1.75;;;;;;;-145.69;54.65;51911.69;5096515;28;20194;-83
2023/07/23 01:50:13;;;;;;;6.25;1.98;;;;;;;-145.69;54.05;51895.84;5096355;28;20198;-84
2023/07/23 01:52:39;;;;;;;3.83;2.00;;;;;;;-145.69;53.87;51905.75;5096980;28;20280;-83
2023/07/23 01:55:07;;;;;;;4.43;2.08;;;;;;;-145.69;55.30;51893.88;5098693;28;20201;-84
2023/07/23 01:57:35;;;;;;;4.53;2.40;;;;;;;-145.69;55.06;51911.69;5096734;28;20653;-84
2023/07/23 02:00:03;;;;;;;2.85;1.67;;;;;;;-145.69;54.85;51885.94;5093843;28;20255;-84
2023/07/23 02:02:29;;;;;;;3.88;1.80;;;;;;;-145.69;54.56;51882.00;5098202;28;20569;-84
2023/07/23 02:04:56;;;;;;;3.38;2.00;;;;;;;-145.69;53.88;51872.09;5097432;28;20193;-84
2023/07/23 02:07:22;;;;;;;5.63;2.00;;;;;;;-145.69;53.48;51897.84;5095005;28;20739;-83
2023/07/23 02:09:50;;;;;;;3.00;1.65;;;;;;;-145.69;54.06;51856.25;5098426;28;20209;-84
2023/07/23 02:12:16;;;;;;;3.67;1.95;;;;;;;-145.69;54.23;51889.91;5096385;28;20206;-84
2023/07/23 02:14:45;;;;;;;2.42;1.75;;;;;;;-145.69;54.10;51882.00;5099709;28;20731;-85
2023/07/23 02:17:11;;;;;;;3.25;1.92;;;;;;;-145.69;54.13;51895.84;5096086;28;20573;-84
2023/07/23 02:19:38;;;;;;;3.50;1.90;;;;;;;-145.69;55.46;51901.78;5097165;28;20198;-84
2023/07/23 02:22:05;;;;;;;3.58;1.90;;;;;;;-145.69;55.49;51876.06;5098142;28;20267;-84
2023/07/23 02:24:31;;;;;;;3.63;2.10;;;;;;;-145.69;56.22;51868.13;5101381;28;20252;-85
2023/07/23 02:26:58;;;;;;;1.98;1.55;;;;;;;-145.69;56.26;51891.88;5096650;28;20229;-84
2023/07/23 02:29:25;;;;;;;3.35;1.98;;;;;;;-145.69;56.75;51878.03;5100272;28;20611;-85
2023/07/23 02:31:52;;;;;;;3.20;2.17;;;;;;;-145.69;56.94;51850.31;5098396;28;20206;-85
2023/07/23 02:34:19;;;;;;;3.30;1.90;;;;;;;-145.69;56.31;51889.91;5096869;28;20198;-84
2023/07/23 02:36:46;;;;;;;3.05;1.65;;;;;;;-145.69;57.10;51874.06;5096367;28;20660;-84
2023/07/23 02:39:13;;;;;;;8.02;2.08;;;;;;;-145.69;56.64;51893.88;5095266;28;20195;-84
2023/07/23 02:41:40;;;;;;;5.68;2.17;;;;;;;-145.69;56.50;51848.34;5094934;28;20201;-83
2023/07/23 02:44:07;;;;;;;3.60;2.05;;;;;;;-145.69;56.62;51885.94;5102666;28;20209;-85
2023/07/23 02:46:33;;;;;;;6.05;2.30;;;;;;;-145.69;57.33;51887.94;5100269;28;20245;-85
2023/07/23 02:49:02;;;;;;;4.43;2.03;;;;;;;-145.69;58.25;51895.84;5099713;28;20460;-84
2023/07/23 02:51:28;;;;;;;3.38;1.85;;;;;;;-145.69;57.86;51885.94;5096086;28;20942;-84
2023/07/23 02:53:55;;;;;;;6.95;2.10;;;;;;;-145.69;57.28;51868.13;5098648;28;20198;-85
2023/07/23 02:56:22;;;;;;;4.13;2.30;;;;;;;-145.69;57.48;51868.13;5095532;28;20206;-85
2023/07/23 02:58:48;;;;;;;3.00;2.10;;;;;;;-145.69;57.43;51887.94;5097257;28;20201;-85
2023/07/23 03:01:15;;;;;;;5.72;1.98;;;;;;;-145.69;57.17;51862.19;5097121;28;20205;-85
2023/07/23 03:03:41;;;;;;;5.38;2.30;;;;;;;-145.69;57.30;51876.06;5095487;28;20205;-84
2023/07/23 03:06:09;;;;;;;5.45;2.33;;;;;;;-145.69;57.45;51880.00;5104408;28;20233;-84
2023/07/23 03:08:36;;;;;;;3.95;2.35;;;;;;;-145.69;58.04;51899.81;5095292;28;20202;-84
2023/07/23 03:11:05;;;;;;;3.03;1.92;;;;;;;-145.69;57.71;51889.91;5095378;28;20205;-85
2023/07/23 03:13:32;;;;;;;3.67;2.00;;;;;;;-145.69;57.47;51878.03;5098919;28;20700;-85
2023/07/23 03:15:58;;;;;;;3.88;1.85;;;;;;;-145.69;57.08;51876.06;5094664;28;20206;-85
2023/07/23 03:18:25;;;;;;;4.53;2.17;;;;;;;-145.69;56.81;51882.00;5094937;28;20715;-84
2023/07/23 03:20:51;;;;;;;2.83;2.00;;;;;;;-145.69;56.65;51893.88;5094514;28;20194;-84
2023/07/23 03:23:20;;;;;;;3.95;2.08;;;;;;;-145.69;56.35;51897.84;5087980;28;20252;-85
2023/07/23 03:25:49;;;;;;;3.67;2.17;;;;;;;-145.69;56.34;51893.88;5094111;28;20195;-84
2023/07/23 03:28:16;;;;;;;4.10;2.35;;;;;;;-145.69;56.98;51870.13;5094548;28;20194;-84
2023/07/23 03:30:44;;;;;;;4.32;2.28;;;;;;;-145.69;57.59;51901.78;5099846;28;20198;-85
2023/07/23 03:33:11;;;;;;;5.93;1.80;;;;;;;-145.69;57.58;51909.72;5096438;28;20202;-84
2023/07/23 03:35:38;;;;;;;4.65;2.40;;;;;;;-145.69;56.04;51909.72;5097807;28;20190;-84
2023/07/23 03:38:04;;;;;;;4.80;2.13;;;;;;;-145.69;55.50;51889.91;5095255;28;20202;-84
2023/07/23 03:40:32;;;;;;;6.10;2.33;;;;;;;-145.69;55.72;51909.72;5095454;28;20248;-84
2023/07/23 03:42:59;;;;;;;2.60;1.83;;;;;;;-145.69;57.13;51889.91;5095591;28;20668;-85
2023/07/23 03:45:29;;;;;;;4.10;2.20;;;;;;;-145.69;56.78;51882.00;5094504;28;20308;-84
2023/07/23 03:47:55;;;;;;;3.50;2.17;;;;;;;-145.69;57.28;51887.94;5094846;28;20653;-83
2023/07/23 03:50:22;;;;;;;4.90;1.90;;;;;;;-145.69;56.66;51883.97;5093676;28;20194;-84
2023/07/23 03:52:48;;;;;;;5.88;2.13;;;;;;;-145.69;56.39;51895.84;5094281;28;20293;-84
2023/07/23 03:55:15;;;;;;;3.63;2.00;;;;;;;-145.69;56.35;51880.00;5093884;28;20675;-84
2023/07/23 03:57:43;;;;;;;4.00;1.83;;;;;;;-145.69;55.92;51893.88;5080134;28;20206;-84
2023/07/23 04:00:10;;;;;;;4.13;2.13;;;;;;;-145.69;56.11;51887.94;5093919;28;20202;-85
2023/07/23 04:02:37;;;;;;;5.00;1.92;;;;;;;-145.69;55.95;51870.13;5094173;28;20205;-85
2023/07/23 04:05:04;;;;;;;2.90;1.98;;;;;;;-145.69;56.54;51878.03;5095592;28;20194;-85
2023/07/23 04:07:30;;;;;;;2.73;1.80;;;;;;;-145.69;56.92;51874.06;5099231;28;20325;-85
2023/07/23 04:09:57;;;;;;;3.90;2.20;;;;;;;-145.69;57.05;51901.78;5094020;28;20202;-85
2023/07/23 04:12:23;;;;;;;3.28;1.70;;;;;;;-145.69;56.87;51885.94;5094709;28;20206;-85
2023/07/23 04:14:51;;;;;;;2.83;1.88;;;;;;;-145.69;56.57;51866.16;5094166;28;20290;-83
2023/07/23 04:17:18;;;;;;;4.00;1.90;;;;;;;-145.69;56.88;51903.78;5094365;28;20663;-85
2023/07/23 04:19:44;;;;;;;2.90;1.70;;;;;;;-145.69;56.98;51882.00;5094122;28;20202;-84
2023/07/23 04:22:11;;;;;;;3.28;2.05;;;;;;;-145.69;56.97;51889.91;5093945;28;20205;-85
2023/07/23 04:24:37;;;;;;;4.18;1.83;;;;;;;-145.69;57.23;51897.84;5094744;28;20252;-85
2023/07/23 04:27:06;;;;;;;3.78;2.30;;;;;;;-145.69;57.35;51874.06;5106212;28;20295;-85
2023/07/23 04:29:33;;;;;;;4.05;2.30;;;;;;;-145.69;57.56;51866.16;5093955;28;20196;-84
2023/07/23 04:32:01;;;;;;;3.85;2.13;;;;;;;-145.69;57.73;51862.19;5096683;28;20198;-84
2023/07/23 04:34:28;;;;;;;3.75;2.08;;;;;;;-145.69;57.20;51897.84;5092328;28;20200;-85
2023/07/23 04:36:54;;;;;;;3.88;1.65;;;;;;;-145.69;57.09;51905.75;5095098;28;20213;-85
2023/07/23 04:39:21;;;;;;;3.35;2.10;;;;;;;-145.69;56.80;51885.94;5093664;28;20557;-85
2023/07/23 04:41:47;;;;;;;5.00;2.20;;;;;;;-145.69;56.76;51882.00;5095392;28;20202;-85
2023/07/23 04:44:14;;;;;;;3.55;2.10;;;;;;;-145.69;57.58;51889.91;5093463;28;20301;-84
2023/07/23 04:46:40;;;;;;;3.50;1.88;;;;;;;-145.69;56.93;51893.88;5093899;28;20218;-85
2023/07/23 04:49:08;;;;;;;3.67;1.90;;;;;;;-145.69;56.72;51878.03;5094145;28;20202;-85
2023/07/23 04:51:35;;;;;;;3.20;2.00;;;;;;;-145.69;56.75;51889.91;5101412;28;20198;-85
2023/07/23 04:54:02;;;;;;;2.10;1.52;;;;;;;-145.69;56.45;51848.34;5100377;28;20207;-85
2023/07/23 04:56:28;;;;;;;3.95;2.15;;;;;;;-145.69;56.35;51858.22;5095030;28;20205;-85
2023/07/23 04:58:55;;;;;;;3.88;2.00;;;;;;;-145.69;56.17;51887.94;5102999;28;20673;-85
2023/07/23 05:01:21;;;;;;;4.20;1.92;;;;;;;-145.69;55.58;51874.06;5095596;28;20683;-85
2023/07/23 05:03:48;;;;;;;2.95;1.90;;;;;;;-145.69;55.38;51868.13;5097160;28;20205;-85
2023/07/23 05:06:16;;;;;;;3.08;2.10;;;;;;;-145.69;55.87;51866.16;5098927;28;20560;-85
2023/07/23 05:08:43;;;;;;;4.53;2.20;;;;;;;-145.69;55.49;51866.16;5098272;28;20327;-85
2023/07/23 05:11:09;;;;;;;5.15;2.10;;;;;;;-145.69;55.01;51872.09;5096986;28;20198;-84
2023/07/23 05:13:36;;;;;;;4.15;1.90;;;;;;;-145.69;54.94;51891.88;5099289;28;20592;-85
2023/07/23 05:16:03;;;;;;;4.20;1.90;;;;;;;-145.69;54.14;51874.06;5098565;28;20280;-85
2023/07/23 05:18:30;;;;;;;4.25;1.95;;;;;;;-145.69;54.31;51895.84;5098449;28;20235;-84
2023/07/23 05:20:57;;;;;;;4.88;2.05;;;;;;;-145.69;54.60;51880.00;5097981;28;20194;-85
2023/07/23 05:23:25;;;;;;;5.05;1.98;;;;;;;-145.69;53.65;51864.16;5097166;28;20198;-85
2023/07/23 05:25:51;;;;;;;4.95;1.80;;;;;;;-145.69;54.33;51860.22;5098059;28;20198;-84
2023/07/23 05:28:18;;;;;;;3.83;2.08;;;;;;;-145.69;53.60;51866.16;5098025;28;20234;-84
2023/07/23 05:30:44;;;;;;;3.65;1.98;;;;;;;-145.69;53.39;51848.34;5097056;28;20529;-84
2023/07/23 05:33:11;;;;;;;3.17;1.67;;;;;;;-145.69;53.38;51850.31;5096581;28;20205;-84
2023/07/23 05:35:39;;;;;;;3.75;1.80;;;;;;;-145.69;52.70;51858.22;5096864;28;20201;-84
2023/07/23 05:38:05;;;;;;;3.13;1.85;;;;;;;-145.69;52.49;51878.03;5097436;28;20198;-84
2023/07/23 05:40:36;;;;;;;3.97;2.00;;;;;;;-145.69;52.10;51854.28;5097190;28;20198;-84
2023/07/23 05:43:07;;;;;;;3.58;1.80;;;;;;;-145.69;51.91;51810.72;5097058;28;20205;-84
2023/07/23 05:45:33;;;;;;;2.75;1.63;;;;;;;-145.69;52.07;51850.31;5095844;28;20207;-84
2023/07/23 05:48:00;;;;;;;2.88;1.67;;;;;;;-145.69;51.77;51840.41;5096705;28;20228;-85
2023/07/23 05:50:26;;;;;;;2.80;1.90;;;;;;;-145.69;51.89;51856.25;5096798;28;20190;-85
2023/07/23 05:52:53;;;;;;;3.30;1.88;;;;;;;-145.69;48.17;51860.22;5097999;28;20657;-84
2023/07/23 05:55:20;;;;;;;2.97;1.80;;;;;;;-145.69;46.75;51822.59;5097235;28;20204;-84
2023/07/23 05:57:48;;;;;;;1.98;1.50;;;;;;;-145.69;45.54;51784.97;5097390;28;20204;-84
2023/07/23 06:00:15;;;;;;;2.80;1.80;;;;;;;-145.69;45.17;51826.56;5096133;28;20231;-85
2023/07/23 06:02:41;;;;;;;6.25;1.70;;;;;;;-145.69;44.33;51826.56;5095875;28;20190;-84
2023/07/23 06:05:08;;;;;;;2.88;1.38;;;;;;;-145.69;43.25;51794.88;5082004;28;20209;-84
2023/07/23 06:07:35;;;;;;;5.22;1.70;;;;;;;-145.69;41.91;51790.91;5078747;28;20313;-84
2023/07/23 06:10:02;;;;;;;2.08;1.45;;;;;;;-145.69;41.32;51773.09;5096618;28;20282;-85
2023/07/23 06:12:29;;;;;;;3.67;1.48;;;;;;;-145.69;39.96;51796.84;5097312;28;20202;-84
2023/07/23 06:14:57;;;;;;;3.47;1.70;;;;;;;-145.69;39.64;51771.09;5096606;28;20230;-83
2023/07/23 06:17:24;;;;;;;2.90;1.63;;;;;;;-145.69;38.58;51800.81;5096855;28;20201;-86
2023/07/23 06:19:50;;;;;;;3.30;1.73;;;;;;;-145.69;37.60;51751.31;5096551;28;20549;-82
2023/07/23 06:22:17;;;;;;;2.25;1.50;;;;;;;-145.69;37.47;51751.31;5095465;28;20198;-84
2023/07/23 06:24:44;;;;;;;4.18;1.77;;;;;;;-145.69;37.55;51743.38;5095769;28;20198;-85
2023/07/23 06:27:10;;;;;;;2.35;1.42;;;;;;;-145.69;36.70;51731.50;5096382;28;20256;-85
2023/07/23 06:29:37;;;;;;;3.47;1.80;;;;;;;-145.69;37.21;51745.38;5096957;28;20202;-85
2023/07/23 06:32:06;;;;;;;2.20;1.23;;;;;;;-145.69;36.70;51723.59;5097249;28;20233;-84
2023/07/23 06:34:33;;;;;;;3.17;1.50;;;;;;;-145.69;37.06;51711.72;5097308;28;20256;-85
2023/07/23 06:36:59;;;;;;;3.22;1.75;;;;;;;-145.69;36.64;51723.59;5096939;28;20202;-85
2023/07/23 06:39:26;;;;;;;4.43;1.55;;;;;;;-145.69;36.40;51731.50;5096584;28;20205;-86
2023/07/23 06:41:52;;;;;;;3.75;1.95;;;;;;;-145.69;36.68;51735.47;5097004;28;20649;-85
2023/07/23 06:44:19;;;;;;;2.55;1.70;;;;;;;-145.69;36.27;51743.38;5097299;28;20568;-81
2023/07/23 06:46:45;;;;;;;2.92;1.40;;;;;;;-145.69;35.98;51727.53;5097546;28;20293;-85
2023/07/23 06:49:14;;;;;;;2.05;1.38;;;;;;;-145.69;35.93;51727.53;5096697;28;20206;-85
2023/07/23 06:51:41;;;;;;;2.97;1.70;;;;;;;-145.69;36.09;51735.47;5095288;28;20641;-85
2023/07/23 06:54:07;;;;;;;2.42;1.40;;;;;;;-145.69;37.15;51751.31;5096942;28;20202;-85
2023/07/23 06:56:35;;;;;;;3.15;1.67;;;;;;;-145.69;36.29;51741.41;5096410;28;20228;-84
2023/07/23 06:59:01;;;;;;;2.97;1.60;;;;;;;-145.69;37.04;51747.34;5095487;28;20198;-84
2023/07/23 07:01:28;;;;;;;2.28;1.45;;;;;;;-145.69;36.98;51763.19;5096441;28;20591;-85
2023/07/23 07:04:01;;;;;;;3.55;1.85;;;;;;;-145.69;37.26;51743.38;5096128;28;20597;-85
2023/07/23 07:06:30;;;;;;;3.22;1.80;;;;;;;-145.69;37.72;51737.44;5096164;28;20250;-84
2023/07/23 07:08:57;;;;;;;2.50;1.63;;;;;;;-145.69;37.91;51755.25;5096797;28;20776;-85
2023/07/23 07:11:23;;;;;;;4.63;1.60;;;;;;;-145.69;38.04;51739.44;5097029;28;20194;-85
2023/07/23 07:13:52;;;;;;;2.53;1.70;;;;;;;-145.69;37.80;51735.47;5096476;28;20237;-85
2023/07/23 07:16:20;;;;;;;5.97;1.90;;;;;;;-145.69;38.82;51743.38;5096532;28;20229;-85
2023/07/23 07:18:46;;;;;;;3.60;1.70;;;;;;;-145.69;39.04;51739.44;5096344;28;20206;-85
2023/07/23 07:21:13;;;;;;;4.45;1.42;;;;;;;-145.69;38.02;51737.44;5094892;28;20268;-84
2023/07/23 07:23:43;;;;;;;3.22;1.77;;;;;;;-145.69;37.75;51751.31;5095352;28;20198;-83
2023/07/23 07:26:09;;;;;;;2.45;1.60;;;;;;;-145.69;37.91;51735.47;5094413;28;20198;-83
2023/07/23 07:28:36;;;;;;;4.97;1.50;;;;;;;-145.69;37.45;51721.59;5095437;28;20582;-84
2023/07/23 07:31:03;;;;;;;2.47;1.45;;;;;;;-145.69;37.19;51739.44;5095882;28;20198;-85
2023/07/23 07:33:31;;;;;;;3.95;1.73;;;;;;;-145.69;36.80;51709.72;5095402;28;20194;-84
2023/07/23 07:35:59;;;;;;;2.10;1.45;;;;;;;-145.69;36.30;51715.66;5094610;28;20213;-85
2023/07/23 07:38:27;;;;;;;2.65;1.50;;;;;;;-145.69;36.45;51707.75;5084922;28;20211;-84
2023/07/23 07:40:57;;;;;;;1.83;1.33;;;;;;;-145.69;36.10;51709.72;5095773;28;20194;-85
2023/07/23 07:43:24;;;;;;;3.05;1.50;;;;;;;-145.69;35.78;51713.69;5096293;28;20205;-83
2023/07/23 07:45:52;;;;;;;3.38;1.67;;;;;;;-145.69;36.47;51729.53;5094965;28;20209;-84
2023/07/23 07:48:20;;;;;;;4.20;1.67;;;;;;;-145.69;36.78;51729.53;5094641;28;20684;-85
2023/07/23 07:50:48;;;;;;;5.97;1.55;;;;;;;-145.69;36.90;51729.53;5095282;28;20198;-85
2023/07/23 07:53:15;;;;;;;3.45;1.60;;;;;;;-145.69;37.47;51727.53;5094978;28;20240;-84
2023/07/23 07:55:45;;;;;;;2.80;1.63;;;;;;;-145.69;36.71;51717.66;5094753;28;20398;-83
2023/07/23 07:58:15;;;;;;;3.85;1.92;;;;;;;-145.69;35.93;51699.81;5095410;28;20202;-85
2023/07/23 08:00:46;;;;;;;2.78;1.60;;;;;;;-145.69;36.52;51703.78;5094986;28;20255;-84
2023/07/23 08:03:13;;;;;;;2.20;1.67;;;;;;;-145.69;36.41;51727.53;5094810;28;20285;-84
2023/07/23 08:05:40;;;;;;;2.83;1.88;;;;;;;-145.69;36.11;51715.66;5092707;28;20194;-84
2023/07/23 08:08:07;;;;;;;5.53;1.88;;;;;;;-145.69;36.39;51723.59;5094484;28;20230;-85
2023/07/23 08:10:34;;;;;;;6.57;1.80;;;;;;;-145.69;35.88;51701.81;5085618;28;20198;-85
2023/07/23 08:13:02;;;;;;;2.95;1.65;;;;;;;-145.69;36.87;51691.91;5073969;28;20275;-84
2023/07/23 08:15:32;;;;;;;3.72;1.65;;;;;;;-145.69;36.87;51709.72;5080146;28;20202;-84
2023/07/23 08:17:59;;;;;;;2.67;1.50;;;;;;;-145.69;35.35;51670.13;5094765;28;20198;-85
2023/07/23 08:20:28;;;;;;;4.35;1.55;;;;;;;-145.69;34.62;51674.09;5093371;28;20724;-84
2023/07/23 08:22:55;;;;;;;1.52;1.23;;;;;;;-145.69;34.87;51697.84;5094862;28;20205;-85
2023/07/23 08:25:22;;;;;;;3.00;1.63;;;;;;;-145.69;35.85;51656.25;5094832;28;20288;-84
2023/07/23 08:27:52;;;;;;;1.80;1.27;;;;;;;-145.69;35.16;51682.00;5094647;28;20251;-83
2023/07/23 08:30:21;;;;;;;1.98;1.30;;;;;;;-145.69;34.51;51668.16;5093684;28;20202;-83
2023/07/23 08:32:52;;;;;;;2.65;1.23;;;;;;;-145.69;34.44;51668.16;5093983;28;20202;-84
2023/07/23 08:35:19;;;;;;;2.05;1.15;;;;;;;-145.69;35.26;51691.91;5093830;28;20198;-84
2023/07/23 08:37:46;;;;;;;2.20;1.35;;;;;;;-145.69;34.51;51683.97;5094650;28;20198;-86
2023/07/23 08:40:14;;;;;;;1.50;1.05;;;;;;;-145.69;34.18;51664.19;5094261;28;20676;-83
2023/07/23 08:43:07;;;;;;;3.40;1.40;;;;;;;-145.69;33.72;51660.22;5093744;28;20197;-84
2023/07/23 08:46:20;;;;;;;3.08;1.38;;;;;;;-145.69;33.54;51672.09;5093879;28;20669;-84
2023/07/23 08:49:09;;;;;;;1.50;1.20;;;;;;;-145.69;33.79;51668.16;5093878;28;20234;-84
2023/07/23 08:51:44;;;;;;;2.60;1.30;;;;;;;-145.69;34.00;51632.50;5092252;28;20649;-86
2023/07/23 08:54:12;;;;;;;2.42;1.42;;;;;;;-145.69;33.48;51648.34;5092215;28;20190;-85
2023/07/23 08:56:40;;;;;;;3.55;1.20;;;;;;;-145.69;33.73;51648.34;5093097;28;20296;-86
2023/07/23 08:59:08;;;;;;;2.53;1.38;;;;;;;-145.69;33.66;51670.13;5093485;28;20198;-83
2023/07/23 09:01:36;;;;;;;1.92;1.23;;;;;;;-145.69;33.49;51664.19;5093038;28;20628;-84
2023/07/23 09:04:04;;;;;;;2.10;1.50;;;;;;;-145.69;34.11;51656.25;5093378;28;20217;-85
2023/07/23 09:06:32;;;;;;;1.98;1.20;;;;;;;-145.69;33.55;51672.09;5094062;28;20213;-83
2023/07/23 09:09:03;;;;;;;2.10;1.45;;;;;;;-145.69;33.75;51656.25;5093508;28;20233;-85
2023/07/23 09:11:30;;;;;;;2.47;1.30;;;;;;;-145.69;34.31;51658.25;5093940;28;20208;-85
2023/07/23 09:13:59;;;;;;;2.88;1.58;;;;;;;-145.69;33.83;51656.25;5093435;28;20259;-85
2023/07/23 09:16:26;;;;;;;4.20;1.30;;;;;;;-145.69;33.90;51658.25;5093389;28;20208;-85
2023/07/23 09:18:52;;;;;;;2.40;1.30;;;;;;;-145.69;33.61;51640.44;5093623;28;20202;-84
2023/07/23 09:21:26;;;;;;;1.52;1.05;;;;;;;-145.69;33.24;51672.09;5093155;28;20197;-84
2023/07/23 09:23:55;;;;;;;5.55;1.40;;;;;;;-145.69;33.21;51668.16;5092810;28;20198;-85
2023/07/23 09:26:24;;;;;;;2.20;1.38;;;;;;;-145.69;33.30;51640.44;5092930;28;20199;-86
2023/07/23 09:28:51;;;;;;;1.98;1.40;;;;;;;-145.69;33.63;51670.13;5092767;28;20244;-87
2023/07/23 09:31:23;;;;;;;2.28;1.30;;;;;;;-145.69;33.27;51648.34;5093114;28;20205;-84
2023/07/23 09:33:53;;;;;;;3.55;1.45;;;;;;;-145.69;33.32;51644.38;5092085;28;20213;-85
2023/07/23 09:36:21;;;;;;;2.40;1.30;;;;;;;-145.69;33.71;51650.31;5092874;28;20251;-86
2023/07/23 09:38:55;;;;;;;1.50;1.08;;;;;;;-145.69;33.49;51662.22;5093194;28;20675;-85
2023/07/23 09:41:22;;;;;;;3.35;1.20;;;;;;;-145.69;32.96;51636.47;5093176;28;20781;-84
2023/07/23 09:43:50;;;;;;;5.70;1.98;;;;;;;-145.69;34.44;51658.25;5089170;28;20294;-83
2023/07/23 09:46:17;;;;;;;5.45;1.45;;;;;;;-145.69;32.82;51646.38;5093284;28;20294;-84
2023/07/23 09:48:45;;;;;;;2.97;1.35;;;;;;;-145.69;33.79;51644.38;5093717;28;20284;-85
2023/07/23 09:51:14;;;;;;;2.13;1.23;;;;;;;-145.69;32.91;51640.44;5097226;28;20210;-85
2023/07/23 09:53:45;;;;;;;4.43;1.58;;;;;;;-145.69;32.23;51654.28;5097017;28;20526;-85
2023/07/23 09:56:14;;;;;;;1.85;1.20;;;;;;;-145.69;32.38;51628.53;5098096;28;20198;-85
2023/07/23 09:58:43;;;;;;;4.03;1.40;;;;;;;-145.69;32.15;51628.53;5098394;28;20194;-84
2023/07/23 10:01:10;;;;;;;2.65;1.60;;;;;;;-145.69;31.81;51636.47;5098011;28;20198;-84
2023/07/23 10:03:43;;;;;;;2.22;1.60;;;;;;;-145.69;32.35;51642.41;5098872;28;20653;-85
2023/07/23 10:06:11;;;;;;;2.35;1.50;;;;;;;-145.69;31.76;51624.59;5098243;28;20213;-85
2023/07/23 10:08:42;;;;;;;4.88;1.58;;;;;;;-145.69;32.46;51624.59;5097014;28;20316;-85
2023/07/23 10:11:10;;;;;;;2.20;1.48;;;;;;;-145.69;32.08;51620.63;5098985;28;20209;-85
2023/07/23 10:13:39;;;;;;;2.67;1.70;;;;;;;-145.69;31.63;51608.75;5102451;28;20588;-89
2023/07/23 10:16:09;;;;;;;2.80;1.60;;;;;;;-145.69;31.11;51644.38;5097824;28;20212;-84
2023/07/23 10:18:40;;;;;;;3.72;1.70;;;;;;;-145.69;31.37;51634.47;5097860;28;20552;-86
2023/07/23 10:21:08;;;;;;;5.05;1.73;;;;;;;-145.69;31.00;51624.59;5080405;28;20202;-84
2023/07/23 10:23:41;;;;;;;2.63;1.70;;;;;;;-145.69;31.83;51644.38;5089970;28;20198;-86
2023/07/23 10:26:22;;;;;;;2.80;1.67;;;;;;;-145.69;31.40;51644.38;5098222;28;20202;-86
2023/07/23 10:28:51;;;;;;;4.57;2.05;;;;;;;-145.69;31.31;51650.31;5097233;28;20228;-83
2023/07/23 10:31:26;;;;;;;3.75;2.00;;;;;;;-145.69;31.77;51646.38;5097244;28;20736;-84
2023/07/23 10:33:53;;;;;;;4.35;2.13;;;;;;;-145.69;32.21;51620.63;5096990;28;20198;-85
2023/07/23 10:36:22;;;;;;;4.13;2.05;;;;;;;-145.69;31.62;51660.22;5097319;28;20607;-84
2023/07/23 10:39:03;;;;;;;8.23;2.17;;;;;;;-145.69;31.92;51646.38;5096196;28;20296;-87
2023/07/23 10:41:49;;;;;;;3.28;2.15;;;;;;;-145.69;31.24;51624.59;5095792;28;20198;-84
2023/07/23 10:44:22;;;;;;;7.43;2.60;;;;;;;-145.69;31.75;51630.53;5096316;28;20235;-86
2023/07/23 10:46:49;;;;;;;5.30;3.10;;;;;;;-145.69;31.40;51672.09;5096273;28;20206;-84
2023/07/23 10:49:21;;;;;;;6.88;3.40;;;;;;;-145.69;31.85;51652.31;5094770;28;20722;-86
2023/07/23 10:51:50;;;;;;;3.78;2.00;;;;;;;-145.69;32.12;51674.09;5095915;28;20263;-86
2023/07/23 10:54:18;;;;;;;4.80;2.58;;;;;;;-145.69;32.77;51646.38;5094868;28;20202;-86
2023/07/23 10:56:46;;;;;;;4.32;2.47;;;;;;;-145.69;32.33;51683.97;5095632;28;20560;-84
2023/07/23 10:59:15;;;;;;;7.75;2.40;;;;;;;-145.69;32.90;51678.03;5096500;28;20256;-86
2023/07/23 11:01:45;;;;;;;4.78;2.78;;;;;;;-145.69;32.44;51672.09;5094763;28;20209;-86
2023/07/23 11:04:13;;;;;;;5.60;2.85;;;;;;;-145.69;32.42;51652.31;5096347;28;20198;-85
2023/07/23 11:06:53;;;;;;;11.52;3.30;;;;;;;-145.69;31.50;51689.94;5096623;28;20204;-85
2023/07/23 11:09:26;;;;;;;7.00;3.13;;;;;;;-145.69;31.29;51668.16;5097135;28;20233;-84
2023/07/23 11:11:53;;;;;;;7.07;3.60;;;;;;;-145.69;31.65;51683.97;5095655;28;20198;-83
2023/07/23 11:14:23;;;;;;;6.93;3.28;;;;;;;-145.69;31.97;51660.22;5095243;28;20312;-81
2023/07/23 11:16:53;;;;;;;5.93;3.38;;;;;;;-145.69;31.27;51664.19;5096001;28;20190;-85
2023/07/23 11:19:20;;;;;;;8.75;3.13;;;;;;;-145.69;31.52;51672.09;5096159;28;20205;-84
2023/07/23 11:21:50;;;;;;;7.47;3.10;;;;;;;-145.69;31.89;51660.22;5095908;28;20202;-84